Time;durP1;ratioP1;P1;durP2;ratioP2;P2;SDS_P1;SDS_P2;PMS_P1;PMS_P2;Temp;Humidity;BMP_temperature;BMP_pressure;BME280_temperature;BME280_humidity;BME280_pressure;Samples;Min_cycle;Max_cycle;Signal;HPM_P1;HPM_P2
2023/09/19 11:53:36;;;;;;;0.8;0.8;;;;;;;25.95;49.70996;937.7719;;;;
2023/09/19 11:56:11;;;;;;;0.5;0.5;;;;;;;24.99;52.02246;937.742;;;;
2023/09/19 11:58:42;;;;;;;0.4;0.3;;;;;;;24.31;56.1377;937.7615;;;;
2023/09/19 12:01:15;;;;;;;0.5;0.5;;;;;;;23.79;58.62695;937.7355;;;;
2023/09/19 12:03:47;;;;;;;0.9;0.4;;;;;;;24.16;56.56641;937.6998;;;;
2023/09/19 12:06:13;;;;;;;1.2;0.4;;;;;;;24.54;54.12695;937.7146;;;;
2023/09/19 12:08:37;;;;;;;1.1;0.4;;;;;;;24.26;55.51855;937.7372;;;;
2023/09/19 12:11:01;;;;;;;0.6;0.4;;;;;;;23.97;53.52832;937.7445;;;;
2023/09/19 12:13:31;;;;;;;0.3;0.3;;;;;;;23.92;53.51172;937.6986;;;;
2023/09/19 12:16:01;;;;;;;0.4;0.4;;;;;;;24.11;54.15723;937.663;;;;
2023/09/19 12:18:35;;;;;;;0.9;0.4;;;;;;;24.02;57.64258;937.6149;;;;
2023/09/19 12:21:02;;;;;;;0.4;0.4;;;;;;;24.25;57.69824;937.6375;;;;
2023/09/19 12:23:25;;;;;;;1.2;0.5;;;;;;;24.02;55.39551;937.5691;;;;
2023/09/19 12:25:59;;;;;;;0.5;0.4;;;;;;;23.61;55.76758;937.6275;;;;
2023/09/19 12:28:34;;;;;;;0.4;0.4;;;;;;;23.68;56.02344;937.5967;;;;
2023/09/19 12:30:57;;;;;;;0.3;0.3;;;;;;;23.47;55.32715;937.6111;;;;
2023/09/19 12:33:25;;;;;;;0.4;0.4;;;;;;;23.6;54.28418;937.6679;;;;
2023/09/19 12:35:53;;;;;;;0.4;0.4;;;;;;;23.79;54.37793;937.6805;;;;
2023/09/19 12:38:28;;;;;;;0.8;0.4;;;;;;;24.07;54.55273;937.6404;;;;
2023/09/19 12:41:00;;;;;;;0.7;0.5;;;;;;;23.72;55.95801;937.6785;;;;
2023/09/19 12:43:27;;;;;;;0.4;0.4;;;;;;;23.38;56.47852;937.7081;;;;
2023/09/19 12:45:55;;;;;;;0.5;0.5;;;;;;;23.43;56.50879;937.6965;;;;
2023/09/19 12:48:21;;;;;;;1.5;0.6;;;;;;;23.26;56.72266;937.6472;;;;
2023/09/19 12:50:45;;;;;;;0.5;0.5;;;;;;;23.37;56.83105;937.745;;;;
2023/09/19 12:53:16;;;;;;;0.4;0.4;;;;;;;23.38;59.25293;937.6666;;;;
2023/09/19 12:55:42;;;;;;;0.5;0.5;;;;;;;23.98;56.0957;937.6741;;;;
2023/09/19 12:58:12;;;;;;;1;0.5;;;;;;;24.04;56.11426;937.6534;;;;
2023/09/19 13:00:44;;;;;;;0.6;0.6;;;;;;;24.09;55.07324;937.6086;;;;
2023/09/19 13:03:09;;;;;;;0.7;0.6;;;;;;;23.96;56.09375;937.6538;;;;
2023/09/19 13:05:37;;;;;;;0.4;0.4;;;;;;;23.86;57.29199;937.6422;;;;
2023/09/19 13:08:02;;;;;;;0.5;0.5;;;;;;;24.02;54.99414;937.5977;;;;
2023/09/19 13:10:28;;;;;;;0.4;0.4;;;;;;;23.76;53.64355;937.5533;;;;
2023/09/19 13:12:54;;;;;;;0.8;0.5;;;;;;;23.72;56.63965;937.5388;;;;
2023/09/19 13:15:24;;;;;;;1.2;0.8;;;;;;;23.55;57.95898;937.6167;;;;
2023/09/19 13:17:48;;;;;;;1.1;0.6;;;;;;;23.76;57.25684;937.58;;;;
2023/09/19 13:20:24;;;;;;;0.9;0.6;;;;;;;23.61;52.07324;937.5478;;;;
2023/09/19 13:22:49;;;;;;;0.6;0.6;;;;;;;23.41;56.16602;937.5516;;;;
2023/09/19 13:25:17;;;;;;;0.9;0.5;;;;;;;23.05;59.32813;937.5771;;;;
2023/09/19 13:27:39;;;;;;;0.7;0.6;;;;;;;23.16;58.38965;937.5916;;;;
2023/09/19 13:30:15;;;;;;;0.6;0.4;;;;;;;23.23;56.87109;937.6287;;;;
2023/09/19 13:32:40;;;;;;;0.6;0.5;;;;;;;23.61;56.01465;937.5333;;;;
2023/09/19 13:35:08;;;;;;;0.6;0.5;;;;;;;23.87;54.22168;937.4839;;;;
2023/09/19 13:37:32;;;;;;;1.1;0.6;;;;;;;24.13;53.54785;937.4269;;;;
2023/09/19 13:40:05;;;;;;;0.6;0.6;;;;;;;24.53;53.10059;937.418;;;;
2023/09/19 13:42:33;;;;;;;0.6;0.6;;;;;;;24.93;51.1543;937.3928;;;;
2023/09/19 13:45:00;;;;;;;1.3;0.6;;;;;;;24.41;52.63867;937.3624;;;;
2023/09/19 13:47:28;;;;;;;0.6;0.6;;;;;;;25.05;52.33594;937.3625;;;;
2023/09/19 13:49:55;;;;;;;0.7;0.6;;;;;;;25.24;51.65039;937.3362;;;;
2023/09/19 13:52:21;;;;;;;3.6;0.7;;;;;;;25.54;50.77539;937.3354;;;;
2023/09/19 13:54:48;;;;;;;1;0.5;;;;;;;25.96;49.64063;937.3046;;;;
2023/09/19 13:57:13;;;;;;;0.6;0.5;;;;;;;25.98;50.08008;937.3231;;;;
2023/09/19 13:59:40;;;;;;;0.4;0.4;;;;;;;26.12;49.2207;937.2689;;;;
2023/09/19 14:02:06;;;;;;;0.6;0.4;;;;;;;25.98;47.60938;937.2814;;;;
2023/09/19 14:04:31;;;;;;;0.7;0.7;;;;;;;25.4;51.24316;937.2779;;;;
2023/09/19 14:07:00;;;;;;;2.2;0.6;;;;;;;25.33;51.2832;937.2388;;;;
2023/09/19 14:09:26;;;;;;;0.7;0.6;;;;;;;25.31;48.81348;937.2046;;;;
2023/09/19 14:11:54;;;;;;;0.5;0.5;;;;;;;25.6;48.4082;937.2263;;;;
2023/09/19 14:14:18;;;;;;;0.4;0.4;;;;;;;25.79;48.27441;937.2281;;;;
2023/09/19 14:16:48;;;;;;;1;0.5;;;;;;;25.68;49.94141;937.1895;;;;
2023/09/19 14:19:13;;;;;;;0.4;0.4;;;;;;;25.85;48.6709;937.1795;;;;
2023/09/19 14:21:41;;;;;;;0.5;0.5;;;;;;;26.03;47.25879;937.1657;;;;
2023/09/19 14:24:09;;;;;;;0.6;0.6;;;;;;;26.18;47.21484;937.1367;;;;
2023/09/19 14:26:31;;;;;;;0.7;0.6;;;;;;;25.59;49.56348;937.1364;;;;
2023/09/19 14:28:57;;;;;;;0.6;0.6;;;;;;;25.69;48.36914;937.0711;;;;
2023/09/19 14:31:22;;;;;;;1.9;0.6;;;;;;;25.74;49.54492;937.0818;;;;
2023/09/19 14:33:52;;;;;;;0.5;0.5;;;;;;;25.51;51.43359;936.9644;;;;
2023/09/19 14:36:18;;;;;;;0.5;0.5;;;;;;;25.52;49.76953;937.0323;;;;
2023/09/19 14:38:42;;;;;;;0.5;0.5;;;;;;;25.51;49.37891;936.9921;;;;
2023/09/19 14:41:10;;;;;;;0.7;0.7;;;;;;;25.53;48.49414;936.9445;;;;
2023/09/19 14:43:37;;;;;;;1.1;0.6;;;;;;;24.84;51.84082;936.9789;;;;
2023/09/19 14:46:02;;;;;;;1.6;0.6;;;;;;;24.4;53.01465;936.967;;;;
2023/09/19 14:48:27;;;;;;;0.8;0.6;;;;;;;24.14;53.01855;937.0094;;;;
2023/09/19 14:50:52;;;;;;;0.4;0.4;;;;;;;23.71;54.9668;936.9758;;;;
2023/09/19 14:53:20;;;;;;;1.5;0.6;;;;;;;23.34;56.28711;936.9587;;;;
2023/09/19 14:55:47;;;;;;;0.4;0.4;;;;;;;23.46;55.6543;936.9794;;;;
2023/09/19 14:58:10;;;;;;;0.6;0.6;;;;;;;23.55;55.65332;936.9274;;;;
2023/09/19 15:00:35;;;;;;;0.7;0.7;;;;;;;23.6;56.74219;936.9165;;;;
2023/09/19 15:03:00;;;;;;;0.7;0.7;;;;;;;23.76;54.19727;936.9581;;;;
2023/09/19 15:05:25;;;;;;;0.7;0.5;;;;;;;23.25;57.03809;936.9222;;;;
2023/09/19 15:07:51;;;;;;;0.8;0.6;;;;;;;22.91;57.71191;936.9102;;;;
2023/09/19 15:10:18;;;;;;;1.8;0.5;;;;;;;22.63;60.36328;936.9646;;;;
2023/09/19 15:12:47;;;;;;;1.4;0.4;;;;;;;22.9;59.20117;936.8756;;;;
2023/09/19 15:15:16;;;;;;;0.6;0.6;;;;;;;23.1;57.86426;936.9328;;;;
2023/09/19 15:17:42;;;;;;;0.7;0.5;;;;;;;23.44;57.68555;936.9436;;;;
2023/09/19 15:20:14;;;;;;;0.8;0.5;;;;;;;23.6;55.90723;936.8948;;;;
2023/09/19 15:22:46;;;;;;;0.5;0.5;;;;;;;23.75;54.54883;936.9269;;;;
2023/09/19 15:25:15;;;;;;;0.9;0.5;;;;;;;23.67;56.76367;936.9246;;;;
2023/09/19 15:27:41;;;;;;;0.6;0.5;;;;;;;23.71;55.27344;936.8829;;;;
2023/09/19 15:30:15;;;;;;;0.4;0.4;;;;;;;23.78;55.28223;936.8767;;;;
2023/09/19 15:32:44;;;;;;;0.9;0.5;;;;;;;23.53;56.5332;936.8575;;;;
2023/09/19 15:35:12;;;;;;;0.6;0.6;;;;;;;23.57;56.7041;936.8725;;;;
2023/09/19 15:37:34;;;;;;;0.4;0.4;;;;;;;23.51;56.82617;936.8103;;;;
2023/09/19 15:40:00;;;;;;;0.4;0.4;;;;;;;23.49;56.02344;936.869;;;;
2023/09/19 15:42:25;;;;;;;0.5;0.5;;;;;;;23.39;56.82129;936.8851;;;;
2023/09/19 15:44:55;;;;;;;0.8;0.6;;;;;;;22.97;57.86035;936.8702;;;;
2023/09/19 15:47:20;;;;;;;1;0.6;;;;;;;23.08;58.68457;936.8582;;;;
2023/09/19 15:49:45;;;;;;;1.5;0.8;;;;;;;22.92;59.40332;936.8569;;;;
2023/09/19 15:52:10;;;;;;;0.5;0.5;;;;;;;23;59.87305;936.8309;;;;
2023/09/19 15:54:43;;;;;;;0.8;0.6;;;;;;;23.16;60.28223;936.8897;;;;
2023/09/19 15:57:03;;;;;;;1.7;1;;;;;;;23.25;59.53027;936.8706;;;;
2023/09/19 15:59:31;;;;;;;0.6;0.6;;;;;;;23.24;59.27051;936.8787;;;;
2023/09/19 16:01:57;;;;;;;1;0.9;;;;;;;23.15;59.52832;936.8853;;;;
2023/09/19 16:04:26;;;;;;;1;0.7;;;;;;;22.94;60.2168;936.8596;;;;
2023/09/19 16:06:51;;;;;;;0.8;0.6;;;;;;;22.86;61.48633;936.9534;;;;
2023/09/19 16:09:17;;;;;;;0.5;0.5;;;;;;;22.71;61.47656;936.8762;;;;
2023/09/19 16:11:43;;;;;;;0.8;0.7;;;;;;;22.64;62.48828;936.9813;;;;
2023/09/19 16:14:10;;;;;;;1.1;0.6;;;;;;;22.52;62.77637;936.9703;;;;
2023/09/19 16:16:34;;;;;;;2.4;0.7;;;;;;;22.57;62.37305;936.9983;;;;
2023/09/19 16:19:03;;;;;;;0.9;0.6;;;;;;;22.73;62.09082;936.967;;;;
2023/09/19 16:21:44;;;;;;;1.5;0.5;;;;;;;22.69;61.54492;937.0376;;;;
2023/09/19 16:24:01;;;;;;;0.6;0.6;;;;;;;22.57;62.7373;937.0995;;;;
2023/09/19 16:26:26;;;;;;;0.5;0.5;;;;;;;22.48;62.87695;937.0714;;;;
2023/09/19 16:28:52;;;;;;;2.7;0.8;;;;;;;22.39;63.6748;937.1207;;;;
2023/09/19 16:31:18;;;;;;;1.1;0.7;;;;;;;22.16;65.46875;937.1697;;;;
2023/09/19 16:33:45;;;;;;;2.1;1.1;;;;;;;21.61;68.18652;937.1642;;;;
2023/09/19 16:36:10;;;;;;;4.2;1.6;;;;;;;21.42;68.34473;937.1322;;;;
2023/09/19 16:38:36;;;;;;;3;1.5;;;;;;;21.31;69.05371;937.1456;;;;
2023/09/19 16:41:04;;;;;;;1.9;1.3;;;;;;;21.23;69.65039;937.1061;;;;
2023/09/19 16:43:30;;;;;;;3.3;1.2;;;;;;;21.18;69.60645;937.1316;;;;
2023/09/19 16:45:55;;;;;;;1.1;0.8;;;;;;;21.25;69.20898;937.1387;;;;
2023/09/19 16:48:20;;;;;;;0.9;0.8;;;;;;;21.17;68.76367;937.106;;;;
2023/09/19 16:50:45;;;;;;;0.9;0.7;;;;;;;21.1;69.15137;937.2004;;;;
2023/09/19 16:53:11;;;;;;;4.1;1.1;;;;;;;20.8;70.92676;937.1619;;;;
2023/09/19 16:55:38;;;;;;;3;1.6;;;;;;;20.41;73.00195;937.226;;;;
2023/09/19 16:58:01;;;;;;;3.2;1.4;;;;;;;20.16;73.61328;937.2724;;;;
2023/09/19 17:00:28;;;;;;;3.1;1.4;;;;;;;19.92;74.30762;937.2856;;;;
2023/09/19 17:02:56;;;;;;;2.1;1.2;;;;;;;19.89;74.7002;937.3219;;;;
2023/09/19 17:05:18;;;;;;;3;1.2;;;;;;;19.87;75.01172;937.3727;;;;
2023/09/19 17:07:45;;;;;;;3.5;1.3;;;;;;;19.86;75.0332;937.4269;;;;
2023/09/19 17:10:11;;;;;;;2.3;1.2;;;;;;;19.9;74.7959;937.3798;;;;
2023/09/19 17:12:38;;;;;;;2.3;1.2;;;;;;;19.91;74.80762;937.3787;;;;
2023/09/19 17:15:03;;;;;;;1.3;0.8;;;;;;;19.66;75.6875;937.3957;;;;
2023/09/19 17:17:28;;;;;;;1.2;0.8;;;;;;;19.63;75.9375;937.467;;;;
2023/09/19 17:19:53;;;;;;;3.2;1.1;;;;;;;19.49;76.47363;937.4595;;;;
2023/09/19 17:22:18;;;;;;;1.7;1.3;;;;;;;19.47;76.50586;937.5133;;;;
2023/09/19 17:24:49;;;;;;;3;1;;;;;;;19.47;76.86719;937.5271;;;;
2023/09/19 17:27:13;;;;;;;1.1;1;;;;;;;19.54;76.57617;937.5222;;;;
2023/09/19 17:29:38;;;;;;;2.9;0.8;;;;;;;19.58;75.86035;937.5922;;;;
2023/09/19 17:32:04;;;;;;;0.8;0.7;;;;;;;19.56;75.77539;937.5717;;;;
2023/09/19 17:34:30;;;;;;;2.1;1;;;;;;;19.47;75.85352;937.5731;;;;
2023/09/19 17:36:57;;;;;;;1.9;1;;;;;;;19.41;76.1582;937.5694;;;;
2023/09/19 17:39:21;;;;;;;1;0.6;;;;;;;19.23;77.37012;937.5516;;;;
2023/09/19 17:41:48;;;;;;;1.2;0.9;;;;;;;19.25;77.33984;937.5792;;;;
2023/09/19 17:44:13;;;;;;;0.8;0.8;;;;;;;19.2;77.04004;937.5834;;;;
2023/09/19 17:46:41;;;;;;;1.1;0.8;;;;;;;19.12;77.66699;937.5822;;;;
2023/09/19 17:49:08;;;;;;;2.4;0.8;;;;;;;19.1;77.14063;937.6511;;;;
2023/09/19 17:51:33;;;;;;;1.9;0.8;;;;;;;18.99;77.21289;937.6714;;;;
2023/09/19 17:53:59;;;;;;;1.2;0.8;;;;;;;18.96;77.37109;937.6552;;;;
2023/09/19 17:56:26;;;;;;;1.7;0.7;;;;;;;19.03;77.21875;937.6942;;;;
2023/09/19 17:58:54;;;;;;;1;0.7;;;;;;;19.13;77.1582;937.7198;;;;
2023/09/19 18:01:17;;;;;;;1.8;1.1;;;;;;;19.13;77.93652;937.7385;;;;
2023/09/19 18:03:43;;;;;;;1.1;1;;;;;;;19.06;78.25;937.6902;;;;
2023/09/19 18:06:06;;;;;;;1.3;0.7;;;;;;;18.98;78.52832;937.7659;;;;
2023/09/19 18:08:34;;;;;;;1.6;1;;;;;;;19.04;78.0957;937.7431;;;;
2023/09/19 18:11:00;;;;;;;1;0.9;;;;;;;19.05;78.06055;937.7567;;;;
2023/09/19 18:13:26;;;;;;;1.4;1;;;;;;;18.94;78.60156;937.7072;;;;
2023/09/19 18:15:51;;;;;;;2.4;0.9;;;;;;;18.83;79.11914;937.7928;;;;
2023/09/19 18:18:19;;;;;;;1.5;1.1;;;;;;;18.86;79.07617;937.7809;;;;
2023/09/19 18:20:45;;;;;;;2.4;1.3;;;;;;;18.92;78.80664;937.6431;;;;
2023/09/19 18:23:09;;;;;;;3;1.1;;;;;;;18.9;78.47852;937.7372;;;;
2023/09/19 18:25:35;;;;;;;2.3;1.2;;;;;;;18.84;78.23535;937.8508;;;;
2023/09/19 18:28:04;;;;;;;3.5;1.3;;;;;;;18.76;78.69727;937.8621;;;;
2023/09/19 18:30:28;;;;;;;2;1.2;;;;;;;18.72;78.86523;937.9056;;;;
2023/09/19 18:32:57;;;;;;;3;1;;;;;;;18.69;79.19824;937.9546;;;;
2023/09/19 18:35:23;;;;;;;1.4;1.1;;;;;;;18.66;78.90039;937.9441;;;;
2023/09/19 18:37:51;;;;;;;1.7;1.1;;;;;;;18.61;79.34473;937.9285;;;;
2023/09/19 18:40:15;;;;;;;1.1;1;;;;;;;18.48;80.32227;937.9852;;;;
2023/09/19 18:42:43;;;;;;;2;1.2;;;;;;;18.35;80.86816;938.0126;;;;
2023/09/19 18:45:10;;;;;;;1.4;1.2;;;;;;;18.22;82.00586;938.012;;;;
2023/09/19 18:47:34;;;;;;;3.4;1.8;;;;;;;18.12;82.21973;938.0438;;;;
2023/09/19 18:50:01;;;;;;;1.7;1.3;;;;;;;18.08;82.07129;938.0494;;;;
2023/09/19 18:52:26;;;;;;;1.5;1.1;;;;;;;18.03;82.31836;938.0375;;;;
2023/09/19 18:54:54;;;;;;;1.9;1.2;;;;;;;18.11;81.78809;938.0818;;;;
2023/09/19 18:57:19;;;;;;;1.8;1;;;;;;;17.99;82.10254;938.0371;;;;
2023/09/19 18:59:47;;;;;;;3.5;1.5;;;;;;;17.96;82.08594;938.0667;;;;
2023/09/19 19:02:12;;;;;;;1.3;1.2;;;;;;;17.83;82.73438;938.0886;;;;
2023/09/19 19:04:40;;;;;;;2.9;1.4;;;;;;;17.74;83.2627;938.032;;;;
2023/09/19 19:07:06;;;;;;;3.4;2.3;;;;;;;17.73;83.58789;938.1271;;;;
2023/09/19 19:09:30;;;;;;;3.2;2.1;;;;;;;17.78;83.2832;938.0908;;;;
2023/09/19 19:11:59;;;;;;;2.4;1.6;;;;;;;17.88;82.96387;938.0708;;;;
2023/09/19 19:14:24;;;;;;;2.1;1.7;;;;;;;17.88;83.16113;938.1071;;;;
2023/09/19 19:16:53;;;;;;;1.6;1;;;;;;;17.89;83.24512;938.0842;;;;
2023/09/19 19:19:18;;;;;;;1.7;1.1;;;;;;;17.88;83.24414;938.1682;;;;
2023/09/19 19:21:43;;;;;;;1.3;1;;;;;;;17.64;84.06836;938.1494;;;;
2023/09/19 19:24:08;;;;;;;1.3;1;;;;;;;17.54;84.45508;938.0865;;;;
2023/09/19 19:26:34;;;;;;;2.2;1.1;;;;;;;17.57;83.96094;938.1278;;;;
2023/09/19 19:28:59;;;;;;;2.2;1.6;;;;;;;17.53;84.07031;938.1544;;;;
2023/09/19 19:31:27;;;;;;;3;1.6;;;;;;;17.42;84.47754;938.1873;;;;
2023/09/19 19:33:52;;;;;;;2.3;1.3;;;;;;;17.36;84.87305;938.1691;;;;
2023/09/19 19:36:17;;;;;;;2.8;1.3;;;;;;;17.3;84.79297;938.2029;;;;
2023/09/19 19:38:42;;;;;;;1.4;1.3;;;;;;;17.38;84.08789;938.1575;;;;
2023/09/19 19:41:09;;;;;;;2.2;1.1;;;;;;;17.4;83.94238;938.1724;;;;
2023/09/19 19:43:34;;;;;;;3.1;1.2;;;;;;;17.26;84.55176;938.1336;;;;
2023/09/19 19:46:03;;;;;;;2.7;1.7;;;;;;;17.11;84.8252;938.1945;;;;
2023/09/19 19:48:27;;;;;;;1.2;1;;;;;;;16.96;85.72168;938.2827;;;;
2023/09/19 19:50:54;;;;;;;2.7;1;;;;;;;16.85;86.28125;938.2988;;;;
2023/09/19 19:53:17;;;;;;;2.7;0.9;;;;;;;16.86;86.38574;938.3051;;;;
2023/09/19 19:55:46;;;;;;;1.7;1.2;;;;;;;16.83;86.52051;938.3159;;;;
2023/09/19 19:58:09;;;;;;;1.6;1.1;;;;;;;16.8;86.53711;938.345;;;;
2023/09/19 20:00:35;;;;;;;2.4;1.1;;;;;;;16.72;86.96094;938.31;;;;
2023/09/19 20:02:59;;;;;;;1.2;1;;;;;;;16.62;87.19629;938.3181;;;;
2023/09/19 20:05:26;;;;;;;1.4;0.9;;;;;;;16.22;89.11621;938.3197;;;;
2023/09/19 20:07:51;;;;;;;1.2;1;;;;;;;16.21;89.42871;938.4496;;;;
2023/09/19 20:10:19;;;;;;;2;1.1;;;;;;;16.42;88.67285;938.4822;;;;
2023/09/19 20:12:43;;;;;;;1;0.8;;;;;;;16.47;87.96387;938.476;;;;
2023/09/19 20:15:14;;;;;;;1.3;0.9;;;;;;;16.46;87.84668;938.5372;;;;
2023/09/19 20:17:40;;;;;;;3.8;2;;;;;;;16.29;88.74902;938.5237;;;;
2023/09/19 20:20:14;;;;;;;10.1;5.8;;;;;;;16.42;87.89746;938.5374;;;;
2023/09/19 20:22:32;;;;;;;16.5;9.4;;;;;;;16.63;86.98926;938.5465;;;;
2023/09/19 20:24:57;;;;;;;5.1;3.4;;;;;;;16.78;86.2666;938.6147;;;;
2023/09/19 20:27:23;;;;;;;2.1;1.5;;;;;;;16.82;86.08887;938.7134;;;;
2023/09/19 20:29:48;;;;;;;2;1.3;;;;;;;16.82;85.77539;938.7101;;;;
2023/09/19 20:32:13;;;;;;;2.3;1.3;;;;;;;16.76;85.74023;938.7019;;;;
2023/09/19 20:34:38;;;;;;;1.6;1.1;;;;;;;16.73;85.55176;938.6764;;;;
2023/09/19 20:37:05;;;;;;;1.5;1.2;;;;;;;16.54;86.30176;938.7523;;;;
2023/09/19 20:39:30;;;;;;;1;0.9;;;;;;;16.36;86.87988;938.6586;;;;
2023/09/19 20:41:55;;;;;;;3.5;2;;;;;;;16.32;87.57617;938.6833;;;;
2023/09/19 20:44:21;;;;;;;2;1.1;;;;;;;16.22;88.06348;938.6844;;;;
2023/09/19 20:46:48;;;;;;;1;0.9;;;;;;;16.27;87.84277;938.7023;;;;
2023/09/19 20:49:12;;;;;;;1.1;1;;;;;;;16.34;87.56836;938.7842;;;;
2023/09/19 20:51:38;;;;;;;1.7;1.1;;;;;;;16.33;87.50879;938.7514;;;;
2023/09/19 20:54:05;;;;;;;2.3;1.1;;;;;;;16.22;87.87891;938.7632;;;;
2023/09/19 20:56:32;;;;;;;1.9;1.3;;;;;;;16.16;88.13379;938.7555;;;;
2023/09/19 20:58:57;;;;;;;2.4;1.1;;;;;;;16.07;88.17188;938.718;;;;
2023/09/19 21:01:22;;;;;;;1.9;1.1;;;;;;;16.02;88.39551;938.7723;;;;
2023/09/19 21:03:49;;;;;;;2.1;1.4;;;;;;;16.08;88.06152;938.6769;;;;
2023/09/19 21:06:15;;;;;;;2.3;1.3;;;;;;;16.08;87.99023;938.7773;;;;
2023/09/19 21:08:42;;;;;;;1.6;1.2;;;;;;;16.08;88.05957;938.7668;;;;
2023/09/19 21:11:07;;;;;;;1.8;1.3;;;;;;;16.01;88.08008;938.8589;;;;
2023/09/19 21:13:32;;;;;;;1.6;1.3;;;;;;;15.97;88.73145;938.8223;;;;
2023/09/19 21:15:57;;;;;;;3.2;1;;;;;;;15.97;88.96289;938.8208;;;;
2023/09/19 21:18:22;;;;;;;1.5;1.2;;;;;;;15.94;88.5293;938.8211;;;;
2023/09/19 21:20:50;;;;;;;2.1;1.5;;;;;;;15.86;88.92871;938.8123;;;;
2023/09/19 21:23:15;;;;;;;3;1;;;;;;;15.78;89.29395;938.7887;;;;
2023/09/19 21:25:42;;;;;;;1.1;0.9;;;;;;;15.67;89.95313;938.7623;;;;
2023/09/19 21:28:06;;;;;;;1.6;0.9;;;;;;;15.64;89.95898;938.8181;;;;
2023/09/19 21:30:33;;;;;;;1.5;1;;;;;;;15.48;90.8252;938.8575;;;;
2023/09/19 21:32:58;;;;;;;3.1;0.9;;;;;;;15.57;90.24316;938.8622;;;;
2023/09/19 21:35:24;;;;;;;0.9;0.9;;;;;;;15.47;90.8252;938.8447;;;;
2023/09/19 21:37:50;;;;;;;2.8;1.2;;;;;;;15.61;90.06934;938.7924;;;;
2023/09/19 21:40:15;;;;;;;2.1;1.3;;;;;;;15.74;89.26172;938.8236;;;;
2023/09/19 21:42:42;;;;;;;1.6;1.1;;;;;;;15.68;89.49316;938.8531;;;;
2023/09/19 21:45:07;;;;;;;1.4;0.9;;;;;;;15.71;89.36035;938.8303;;;;
2023/09/19 21:47:35;;;;;;;1.5;1.2;;;;;;;15.71;89.24414;938.7692;;;;
2023/09/19 21:50:00;;;;;;;2.1;1.2;;;;;;;15.77;88.80469;938.8281;;;;
2023/09/19 21:52:28;;;;;;;1.7;0.9;;;;;;;15.72;88.8877;938.8286;;;;
2023/09/19 21:54:53;;;;;;;2;1;;;;;;;15.49;90.19336;938.8108;;;;
2023/09/19 21:57:19;;;;;;;1.2;0.9;;;;;;;15.6;89.83496;938.8173;;;;
2023/09/19 21:59:44;;;;;;;2.1;1.2;;;;;;;15.8;88.74512;938.8358;;;;
2023/09/19 22:02:13;;;;;;;2;1;;;;;;;15.87;87.97168;938.8226;;;;
2023/09/19 22:04:40;;;;;;;2;1;;;;;;;15.97;87.62109;938.8143;;;;
2023/09/19 22:07:03;;;;;;;1.5;1.1;;;;;;;15.98;87.49805;938.823;;;;
2023/09/19 22:09:30;;;;;;;4;1.1;;;;;;;16.02;87.11035;938.8098;;;;
2023/09/19 22:11:54;;;;;;;1.7;1.4;;;;;;;15.91;87.55078;938.8142;;;;
2023/09/19 22:14:20;;;;;;;2.8;1.1;;;;;;;15.81;87.56543;938.7506;;;;
2023/09/19 22:16:45;;;;;;;1.2;1.1;;;;;;;15.65;88.15918;938.7177;;;;
2023/09/19 22:19:11;;;;;;;1.8;1.1;;;;;;;15.65;88.10156;938.716;;;;
2023/09/19 22:21:37;;;;;;;1.1;0.9;;;;;;;15.56;88.57813;938.7428;;;;
2023/09/19 22:24:01;;;;;;;1.1;0.9;;;;;;;15.47;88.98828;938.7603;;;;
2023/09/19 22:26:27;;;;;;;2.2;1;;;;;;;15.51;88.83594;938.7455;;;;
2023/09/19 22:28:53;;;;;;;1;0.9;;;;;;;15.37;89.22266;938.7753;;;;
2023/09/19 22:31:21;;;;;;;1.1;1;;;;;;;15.19;90.52441;938.8166;;;;
2023/09/19 22:33:43;;;;;;;3.6;1;;;;;;;15.1;91.27734;938.7315;;;;
2023/09/19 22:36:12;;;;;;;1.5;1.2;;;;;;;15.21;90.49512;938.8132;;;;
2023/09/19 22:38:35;;;;;;;1.8;1;;;;;;;15.29;90.03711;938.7648;;;;
2023/09/19 22:41:03;;;;;;;1.5;1;;;;;;;15.24;90.07422;938.7852;;;;
2023/09/19 22:43:32;;;;;;;1.4;0.9;;;;;;;15.19;90.43164;938.774;;;;
2023/09/19 22:45:51;;;;;;;1.4;1;;;;;;;15.13;90.91699;938.7817;;;;
2023/09/19 22:48:24;;;;;;;1.9;0.9;;;;;;;15.24;90.19922;938.7829;;;;
2023/09/19 22:50:48;;;;;;;2.4;1.1;;;;;;;15.3;89.71387;938.8394;;;;
2023/09/19 22:53:14;;;;;;;0.7;0.7;;;;;;;15.37;89.11816;938.8284;;;;
2023/09/19 22:55:39;;;;;;;2.2;1.1;;;;;;;15.38;88.92383;938.8017;;;;
2023/09/19 22:58:03;;;;;;;2.1;1.1;;;;;;;15.43;88.58887;938.7961;;;;
2023/09/19 23:00:26;;;;;;;1.1;1;;;;;;;15.34;88.71875;938.7508;;;;
2023/09/19 23:02:58;;;;;;;1.2;0.9;;;;;;;15.33;88.68457;938.7636;;;;
2023/09/19 23:05:33;;;;;;;1;0.9;;;;;;;15.23;89.45703;938.7509;;;;
2023/09/19 23:07:58;;;;;;;1.1;0.9;;;;;;;15.13;90.14063;938.8002;;;;
2023/09/19 23:10:29;;;;;;;1.2;1.1;;;;;;;15.06;90.49805;938.8295;;;;
2023/09/19 23:13:27;;;;;;;0.9;0.9;;;;;;;15.06;90.56738;938.8088;;;;
2023/09/19 23:15:44;;;;;;;1.7;1;;;;;;;15.05;90.27539;938.7816;;;;
2023/09/19 23:18:11;;;;;;;0.8;0.8;;;;;;;14.91;91.03125;938.8111;;;;
2023/09/19 23:20:45;;;;;;;0.8;0.8;;;;;;;14.86;91.72363;938.8354;;;;
2023/09/19 23:23:15;;;;;;;1.7;1;;;;;;;14.86;91.75781;938.801;;;;
2023/09/19 23:25:46;;;;;;;1.5;0.9;;;;;;;14.9;91.41992;938.8248;;;;
2023/09/19 23:28:10;;;;;;;0.9;0.9;;;;;;;14.9;90.74121;938.8632;;;;
2023/09/19 23:30:34;;;;;;;1.3;0.9;;;;;;;14.67;91.8584;938.9083;;;;
2023/09/19 23:32:59;;;;;;;1.1;1;;;;;;;14.64;92.72656;938.9029;;;;
2023/09/19 23:35:29;;;;;;;1.4;1.1;;;;;;;14.73;92.12402;938.8663;;;;
2023/09/19 23:37:58;;;;;;;1.5;1;;;;;;;14.81;91.66797;938.8811;;;;
2023/09/19 23:40:23;;;;;;;1.1;1;;;;;;;14.79;91.3623;938.866;;;;
2023/09/19 23:42:54;;;;;;;2.2;1.4;;;;;;;14.76;91.63379;938.9255;;;;
2023/09/19 23:45:24;;;;;;;1.3;1;;;;;;;14.82;91.29883;938.9319;;;;
2023/09/19 23:47:45;;;;;;;3.2;1.2;;;;;;;14.85;91.29492;938.9581;;;;
2023/09/19 23:50:15;;;;;;;3.1;1.1;;;;;;;14.96;90.9043;938.8981;;;;
2023/09/19 23:52:38;;;;;;;1.5;1;;;;;;;15.06;90.68262;938.9282;;;;
2023/09/19 23:55:04;;;;;;;1.4;0.9;;;;;;;15.26;89.75293;938.879;;;;
2023/09/19 23:57:30;;;;;;;0.9;0.8;;;;;;;15.35;88.6875;938.8309;;;;
2023/09/19 23:59:54;;;;;;;0.8;0.8;;;;;;;15.29;89.32129;938.8362;;;;
